createdAt,value
2022-10-17T00:01:15.192Z,13.95
2022-10-17T00:03:43.747Z,13.86
2022-10-17T00:06:14.604Z,13.85
2022-10-17T00:08:44.600Z,13.77
2022-10-17T00:11:16.403Z,13.65
2022-10-17T00:13:46.782Z,13.69
2022-10-17T00:16:15.642Z,13.56
2022-10-17T00:18:44.100Z,13.48
2022-10-17T00:21:17.340Z,13.38
2022-10-17T00:23:46.345Z,13.26
2022-10-17T00:26:15.797Z,13.23
2022-10-17T00:28:46.723Z,13.26
2022-10-17T00:31:15.330Z,13.30
2022-10-17T00:33:44.105Z,13.34
2022-10-17T00:36:14.681Z,13.39
2022-10-17T00:38:45.916Z,13.42
2022-10-17T00:41:19.120Z,13.44
2022-10-17T00:43:58.060Z,13.47
2022-10-17T00:46:29.404Z,13.47
2022-10-17T00:49:00.119Z,13.37
2022-10-17T00:51:34.958Z,13.33
2022-10-17T00:54:04.949Z,13.25
2022-10-17T00:56:33.916Z,13.22
2022-10-17T00:59:04.112Z,13.20
2022-10-17T01:01:32.705Z,13.11
2022-10-17T01:04:01.364Z,13.00
2022-10-17T01:06:29.779Z,12.94
2022-10-17T01:08:58.311Z,12.89
2022-10-17T01:11:38.090Z,12.85
2022-10-17T01:14:14.828Z,12.77
2022-10-17T01:16:48.878Z,12.64
2022-10-17T01:19:39.419Z,12.61
2022-10-17T01:22:15.070Z,12.55
2022-10-17T01:25:03.844Z,12.51
2022-10-17T01:27:54.313Z,12.44
2022-10-17T01:30:50.890Z,12.47
2022-10-17T01:33:29.233Z,12.42
2022-10-17T01:36:05.632Z,12.45
2022-10-17T01:38:42.850Z,12.37
2022-10-17T01:41:23.098Z,12.32
2022-10-17T01:43:56.808Z,12.31
2022-10-17T01:46:30.271Z,12.26
2022-10-17T01:49:03.502Z,12.31
2022-10-17T01:51:39.606Z,12.30
2022-10-17T01:54:13.064Z,12.22
2022-10-17T01:56:44.307Z,12.28
2022-10-17T01:59:17.627Z,12.23
2022-10-17T02:01:49.129Z,12.16
2022-10-17T02:04:19.848Z,12.13
2022-10-17T02:06:48.361Z,12.09
2022-10-17T02:09:22.520Z,12.04
2022-10-17T02:12:09.172Z,12.01
2022-10-17T02:14:52.672Z,11.97
2022-10-17T02:17:30.832Z,11.94
2022-10-17T02:20:11.181Z,11.89
2022-10-17T02:22:48.641Z,11.83
2022-10-17T02:25:29.806Z,11.80
2022-10-17T02:28:06.949Z,11.84
2022-10-17T02:30:41.207Z,11.84
2022-10-17T02:33:14.731Z,11.88
2022-10-17T02:35:48.012Z,11.89
2022-10-17T02:38:17.600Z,11.93
2022-10-17T02:40:48.154Z,11.85
2022-10-17T02:43:16.524Z,11.82
2022-10-17T02:45:45.076Z,11.80
2022-10-17T02:48:20.351Z,11.71
2022-10-17T02:50:59.857Z,11.64
2022-10-17T02:53:35.493Z,11.60
2022-10-17T02:56:09.889Z,11.51
2022-10-17T02:58:40.589Z,11.48
2022-10-17T03:01:09.732Z,11.42
2022-10-17T03:03:38.325Z,11.37
2022-10-17T03:06:08.165Z,11.25
2022-10-17T03:11:10.091Z,11.24
2022-10-17T03:13:39.912Z,11.19
2022-10-17T03:16:09.202Z,11.17
2022-10-17T03:18:37.856Z,11.16
2022-10-17T03:21:07.981Z,11.13
2022-10-17T03:23:37.009Z,11.10
2022-10-17T03:26:07.730Z,11.06
2022-10-17T03:28:37.218Z,11.03
2022-10-17T03:31:10.874Z,11.03
2022-10-17T03:33:40.693Z,11.04
2022-10-17T03:36:13.726Z,11.04
2022-10-17T03:38:43.193Z,11.01
2022-10-17T03:41:12.381Z,11.11
2022-10-17T03:43:41.758Z,11.17
2022-10-17T03:46:10.627Z,11.20
2022-10-17T03:48:39.641Z,11.20
2022-10-17T03:51:11.283Z,11.27
2022-10-17T03:53:47.675Z,11.27
2022-10-17T03:56:18.152Z,11.18
2022-10-17T03:58:53.174Z,11.15
2022-10-17T04:01:22.175Z,11.11
2022-10-17T04:03:51.552Z,11.09
2022-10-17T04:06:22.477Z,11.00
2022-10-17T04:08:51.472Z,10.85
2022-10-17T04:11:35.832Z,10.90
2022-10-17T04:14:05.213Z,10.86
2022-10-17T04:16:33.893Z,10.85
2022-10-17T04:19:06.312Z,10.73
2022-10-17T04:21:43.229Z,10.57
2022-10-17T04:24:13.077Z,10.58
2022-10-17T04:26:54.661Z,10.57
2022-10-17T04:29:26.813Z,10.51
2022-10-17T04:32:02.344Z,10.56
2022-10-17T04:34:51.098Z,10.52
2022-10-17T04:37:22.939Z,10.51
2022-10-17T04:39:53.339Z,10.44
2022-10-17T04:42:22.128Z,10.48
2022-10-17T04:44:53.073Z,10.41
2022-10-17T04:47:21.447Z,10.38
2022-10-17T04:49:49.944Z,10.31
2022-10-17T04:52:18.472Z,10.29
2022-10-17T04:54:53.059Z,10.20
2022-10-17T04:57:22.905Z,10.12
2022-10-17T05:00:06.348Z,10.02
2022-10-17T05:02:57.477Z,10.08
2022-10-17T05:05:26.164Z,9.99
2022-10-17T05:07:55.815Z,9.98
2022-10-17T05:10:28.962Z,9.93
2022-10-17T05:12:57.717Z,9.92
2022-10-17T05:15:30.337Z,9.90
2022-10-17T05:17:59.224Z,9.87
2022-10-17T05:20:30.383Z,9.85
2022-10-17T05:22:59.842Z,9.80
2022-10-17T05:25:33.989Z,9.82
2022-10-17T05:28:02.352Z,9.81
2022-10-17T05:30:35.104Z,9.79
2022-10-17T05:33:13.541Z,9.85
2022-10-17T05:35:42.352Z,9.84
2022-10-17T05:38:10.834Z,9.83
2022-10-17T05:40:43.099Z,9.79
2022-10-17T05:43:11.762Z,9.75
2022-10-17T05:45:40.241Z,9.75
2022-10-17T05:48:12.446Z,9.71
2022-10-17T05:50:41.177Z,9.71
2022-10-17T05:53:14.818Z,9.75
2022-10-17T05:55:56.597Z,9.71
2022-10-17T05:58:45.577Z,9.63
2022-10-17T06:01:24.329Z,9.61
2022-10-17T06:03:53.159Z,9.58
2022-10-17T06:06:22.323Z,9.64
2022-10-17T06:08:50.805Z,9.65
2022-10-17T06:11:26.046Z,9.58
2022-10-17T06:13:54.496Z,9.55
2022-10-17T06:16:26.404Z,9.56
2022-10-17T06:18:54.966Z,9.56
2022-10-17T06:21:25.014Z,9.64
2022-10-17T06:23:55.948Z,9.71
2022-10-17T06:26:33.033Z,9.75
2022-10-17T06:29:01.379Z,9.84
2022-10-17T06:31:34.692Z,9.88
2022-10-17T06:34:03.245Z,9.91
2022-10-17T06:36:31.826Z,9.94
2022-10-17T06:39:01.551Z,9.98
2022-10-17T06:41:37.267Z,10.02
2022-10-17T06:44:11.145Z,10.06
2022-10-17T06:47:14.308Z,10.15
2022-10-17T06:49:45.529Z,10.21
2022-10-17T06:52:52.669Z,10.34
2022-10-17T06:55:47.014Z,10.50
2022-10-17T06:58:26.417Z,10.47
2022-10-17T07:01:15.202Z,10.60
2022-10-17T07:03:48.309Z,10.67
2022-10-17T07:06:17.946Z,10.81
2022-10-17T07:08:46.514Z,10.93
2022-10-17T07:11:20.357Z,10.96
2022-10-17T07:13:52.433Z,10.99
2022-10-17T07:16:22.200Z,11.05
2022-10-17T07:18:57.606Z,11.15
2022-10-17T07:21:26.125Z,11.27
2022-10-17T07:23:55.346Z,11.43
2022-10-17T07:26:24.025Z,11.59
2022-10-17T07:28:56.126Z,11.85
2022-10-17T07:31:41.194Z,12.13
2022-10-17T07:34:09.812Z,12.37
2022-10-17T07:36:38.693Z,12.59
2022-10-17T07:39:09.008Z,12.84
2022-10-17T07:41:39.197Z,13.04
2022-10-17T07:44:09.561Z,13.26
2022-10-17T07:46:44.270Z,13.51
2022-10-17T07:49:12.933Z,13.74
2022-10-17T07:51:43.173Z,13.99
2022-10-17T07:54:11.710Z,14.26
2022-10-17T07:56:40.212Z,14.56
2022-10-17T07:59:10.032Z,14.86
2022-10-17T08:01:38.518Z,15.10
2022-10-17T08:04:06.996Z,15.36
2022-10-17T08:06:35.465Z,15.58
2022-10-17T08:09:04.145Z,15.84
2022-10-17T08:11:32.616Z,16.13
2022-10-17T08:14:01.061Z,16.41
2022-10-17T08:16:31.058Z,16.72
2022-10-17T08:18:59.590Z,16.82
2022-10-17T08:21:28.208Z,17.10
2022-10-17T08:23:57.375Z,17.23
2022-10-17T08:26:25.818Z,17.53
2022-10-17T08:28:54.335Z,17.75
2022-10-17T08:31:23.579Z,18.04
2022-10-17T08:33:53.395Z,18.15
2022-10-17T08:36:22.209Z,18.35
2022-10-17T08:38:52.985Z,18.52
2022-10-17T08:41:40.216Z,18.67
2022-10-17T08:44:17.344Z,18.95
2022-10-17T08:46:49.318Z,19.14
2022-10-17T08:49:27.007Z,19.34
2022-10-17T08:52:00.554Z,19.62
2022-10-17T08:54:37.490Z,19.68
2022-10-17T08:57:05.957Z,19.66
2022-10-17T08:59:34.385Z,19.59
2022-10-17T09:02:09.710Z,19.75
2022-10-17T09:04:57.367Z,19.61
2022-10-17T09:07:32.316Z,20.03
2022-10-17T09:10:11.592Z,19.83
2022-10-17T09:12:46.452Z,19.84
2022-10-17T09:15:39.664Z,19.65
2022-10-17T09:18:15.874Z,19.40
2022-10-17T09:20:52.265Z,19.48
2022-10-17T09:23:24.663Z,19.74
2022-10-17T09:25:55.596Z,19.77
2022-10-17T09:28:28.999Z,20.06
2022-10-17T09:31:00.787Z,20.35
2022-10-17T09:33:42.322Z,20.26
2022-10-17T09:36:22.309Z,20.91
2022-10-17T09:38:53.657Z,21.15
2022-10-17T09:41:45.515Z,21.51
2022-10-17T09:44:17.553Z,21.79
2022-10-17T09:47:06.073Z,22.28
2022-10-17T09:49:37.154Z,22.31
2022-10-17T09:52:14.940Z,21.81
2022-10-17T09:54:46.069Z,21.84
2022-10-17T09:57:16.724Z,22.32
2022-10-17T09:59:47.323Z,22.11
2022-10-17T10:02:22.043Z,22.67
2022-10-17T10:05:06.337Z,22.66
2022-10-17T10:07:38.987Z,22.56
2022-10-17T10:10:23.836Z,22.97
2022-10-17T10:13:05.953Z,23.56
2022-10-17T10:15:40.923Z,23.79
2022-10-17T10:21:08.556Z,23.65
2022-10-17T10:23:40.921Z,23.75
2022-10-17T10:26:23.588Z,23.93
2022-10-17T10:28:58.793Z,24.32
2022-10-17T10:31:33.361Z,24.67
2022-10-17T10:34:04.600Z,25.21
2022-10-17T10:36:54.503Z,25.67
2022-10-17T10:39:36.108Z,24.91
2022-10-17T10:42:18.221Z,24.76
2022-10-17T10:44:47.425Z,24.32
2022-10-17T10:47:20.219Z,25.07
2022-10-17T10:49:49.224Z,25.53
2022-10-17T10:52:30.311Z,25.33
2022-10-17T10:55:15.375Z,26.34
2022-10-17T10:57:46.825Z,26.21
2022-10-17T11:00:20.667Z,26.72
2022-10-17T11:02:58.413Z,27.17
2022-10-17T11:05:38.622Z,26.53
2022-10-17T11:08:15.028Z,26.76
2022-10-17T11:10:54.519Z,26.78
2022-10-17T11:13:28.869Z,26.91
2022-10-17T11:16:03.452Z,26.55
2022-10-17T11:18:40.318Z,26.21
2022-10-17T11:21:16.051Z,26.67
2022-10-17T11:23:48.713Z,27.34
2022-10-17T11:26:26.692Z,27.43
2022-10-17T11:28:55.737Z,27.16
2022-10-17T11:31:26.323Z,27.51
2022-10-17T11:34:00.757Z,28.28
2022-10-17T11:36:32.246Z,28.27
2022-10-17T11:39:03.448Z,28.31
2022-10-17T11:41:40.819Z,29.24
2022-10-17T11:44:18.957Z,29.69
2022-10-17T11:46:52.166Z,29.35
2022-10-17T11:52:07.789Z,28.66
2022-10-17T11:54:40.205Z,28.91
2022-10-17T11:57:37.319Z,28.66
2022-10-17T12:00:21.800Z,29.00
2022-10-17T12:03:01.583Z,29.59
2022-10-17T12:05:38.706Z,30.00
2022-10-17T12:08:12.923Z,29.20
2022-10-17T12:10:48.915Z,29.84
2022-10-17T12:13:56.799Z,30.02
2022-10-17T12:16:48.433Z,29.56
2022-10-17T12:19:34.544Z,28.68
2022-10-17T12:22:22.795Z,28.92
2022-10-17T12:24:57.427Z,28.97
2022-10-17T12:27:50.661Z,28.97
2022-10-17T12:30:25.895Z,29.10
2022-10-17T12:33:06.091Z,28.60
2022-10-17T12:35:37.573Z,29.53
2022-10-17T12:38:26.784Z,29.56
2022-10-17T12:41:00.238Z,29.28
2022-10-17T12:43:58.799Z,28.55
2022-10-17T12:46:58.173Z,29.06
2022-10-17T12:49:45.488Z,29.02
2022-10-17T12:52:20.415Z,28.29
2022-10-17T12:55:07.094Z,28.26
2022-10-17T12:57:44.941Z,27.81
2022-10-17T13:00:24.220Z,27.32
2022-10-17T13:03:02.728Z,27.82
2022-10-17T13:05:33.827Z,27.55
2022-10-17T13:08:05.764Z,27.66
2022-10-17T13:10:40.640Z,27.61
2022-10-17T13:13:17.950Z,27.55
2022-10-17T13:15:51.253Z,26.90
2022-10-17T13:18:23.770Z,26.69
2022-10-17T13:21:01.679Z,26.47
2022-10-17T13:23:33.849Z,26.46
2022-10-17T13:26:15.202Z,26.25
2022-10-17T13:28:43.949Z,26.39
2022-10-17T13:31:32.405Z,26.28
2022-10-17T13:34:04.386Z,26.26
2022-10-17T13:36:35.192Z,26.17
2022-10-17T13:39:12.293Z,26.43
2022-10-17T13:41:42.767Z,26.17
2022-10-17T13:44:15.046Z,25.78
2022-10-17T13:46:44.469Z,25.83
2022-10-17T13:49:22.259Z,25.81
2022-10-17T13:51:55.010Z,25.80
2022-10-17T13:54:35.238Z,25.92
2022-10-17T13:57:05.644Z,25.80
2022-10-17T13:59:39.893Z,25.70
2022-10-17T14:02:15.520Z,25.62
2022-10-17T14:05:15.063Z,25.66
2022-10-17T14:08:05.358Z,25.54
2022-10-17T14:10:31.717Z,25.79
2022-10-17T14:13:01.323Z,25.90
2022-10-17T14:15:31.377Z,25.90
2022-10-17T14:18:07.379Z,25.79
2022-10-17T14:21:19.879Z,25.89
2022-10-17T14:23:32.858Z,25.73
2022-10-17T14:26:11.269Z,25.40
2022-10-17T14:28:41.210Z,25.34
2022-10-17T14:31:14.055Z,25.22
2022-10-17T14:33:50.496Z,25.37
2022-10-17T14:36:21.903Z,25.43
2022-10-17T14:38:52.970Z,25.37
2022-10-17T14:44:22.860Z,24.92
2022-10-17T14:46:55.590Z,24.88
2022-10-17T14:49:29.584Z,24.84
2022-10-17T14:52:31.554Z,24.79
2022-10-17T14:55:13.097Z,24.73
2022-10-17T14:57:44.178Z,24.59
2022-10-17T15:00:16.349Z,24.38
2022-10-17T15:02:45.199Z,24.32
2022-10-17T15:05:14.205Z,24.19
2022-10-17T15:07:44.506Z,24.18
2022-10-17T15:10:29.900Z,24.15
2022-10-17T15:13:26.179Z,24.11
2022-10-17T15:15:51.755Z,23.86
2022-10-17T15:18:20.623Z,24.16
2022-10-17T15:20:55.331Z,24.09
2022-10-17T15:23:35.209Z,23.85
2022-10-17T15:26:03.699Z,23.69
2022-10-17T15:28:32.153Z,23.69
2022-10-17T15:31:00.650Z,23.70
2022-10-17T15:33:29.021Z,23.61
2022-10-17T15:38:26.909Z,23.37
2022-10-17T15:40:56.737Z,23.16
2022-10-17T15:43:25.302Z,23.14
2022-10-17T15:45:53.853Z,23.09
2022-10-17T15:48:30.509Z,22.95
2022-10-17T15:50:59.042Z,22.81
2022-10-17T15:53:27.634Z,22.83
2022-10-17T15:55:57.598Z,22.68
2022-10-17T15:58:28.267Z,22.53
2022-10-17T16:00:56.773Z,22.41
2022-10-17T16:03:25.566Z,22.35
2022-10-17T16:05:53.983Z,22.23
2022-10-17T16:08:22.412Z,22.13
2022-10-17T16:10:52.013Z,21.83
2022-10-17T16:13:24.348Z,21.78
2022-10-17T16:15:52.909Z,21.51
2022-10-17T16:18:21.365Z,21.39
2022-10-17T16:20:49.795Z,21.06
2022-10-17T16:23:18.292Z,21.00
2022-10-17T16:25:46.782Z,20.82
2022-10-17T16:28:15.220Z,20.68
2022-10-17T16:30:46.139Z,20.53
2022-10-17T16:33:14.675Z,20.48
2022-10-17T16:35:43.212Z,20.32
2022-10-17T16:38:11.655Z,20.07
2022-10-17T16:40:40.515Z,19.94
2022-10-17T16:43:09.017Z,19.69
2022-10-17T16:45:37.498Z,19.60
2022-10-17T16:48:07.572Z,19.42
2022-10-17T16:50:39.994Z,19.43
2022-10-17T16:53:08.428Z,19.39
2022-10-17T16:55:36.893Z,19.24
2022-10-17T16:58:05.499Z,19.18
2022-10-17T17:00:34.049Z,19.06
2022-10-17T17:03:02.680Z,18.96
2022-10-17T17:05:32.482Z,18.80
2022-10-17T17:08:03.335Z,18.74
2022-10-17T17:10:31.810Z,18.61
2022-10-17T17:13:01.617Z,18.48
2022-10-17T17:15:30.524Z,18.39
2022-10-17T17:18:04.030Z,18.25
2022-10-17T17:20:35.369Z,18.09
2022-10-17T17:23:03.825Z,18.05
2022-10-17T17:25:32.850Z,17.92
2022-10-17T17:28:03.112Z,17.86
2022-10-17T17:30:31.572Z,17.76
2022-10-17T17:33:00.497Z,17.69
2022-10-17T17:35:29.334Z,17.61
2022-10-17T17:37:59.136Z,17.49
2022-10-17T17:40:27.804Z,17.37
2022-10-17T17:42:56.478Z,17.27
2022-10-17T17:45:24.976Z,17.20
2022-10-17T17:47:55.170Z,17.22
2022-10-17T17:50:23.613Z,17.10
2022-10-17T17:52:52.075Z,17.11
2022-10-17T17:55:21.838Z,17.02
2022-10-17T17:57:52.818Z,16.96
2022-10-17T18:00:21.337Z,16.96
2022-10-17T18:02:50.005Z,16.90
2022-10-17T18:05:18.830Z,16.92
2022-10-17T18:07:47.344Z,16.85
2022-10-17T18:10:16.244Z,16.77
2022-10-17T18:12:46.210Z,16.75
2022-10-17T18:15:15.039Z,16.66
2022-10-17T18:17:43.584Z,16.62
2022-10-17T18:20:13.009Z,16.52
2022-10-17T18:22:41.495Z,16.48
2022-10-17T18:25:10.402Z,16.43
2022-10-17T18:27:39.143Z,16.23
2022-10-17T18:30:10.388Z,16.22
2022-10-17T18:32:38.919Z,16.28
2022-10-17T18:35:07.822Z,16.23
2022-10-17T18:37:36.357Z,16.12
2022-10-17T18:40:05.654Z,16.08
2022-10-17T18:42:34.093Z,16.09
2022-10-17T18:45:05.534Z,16.08
2022-10-17T18:47:35.372Z,15.97
2022-10-17T18:50:03.888Z,15.99
2022-10-17T18:52:32.412Z,15.92
2022-10-17T18:55:00.959Z,15.90
2022-10-17T18:57:29.713Z,15.85
2022-10-17T18:59:58.488Z,15.76
2022-10-17T19:02:26.988Z,15.78
2022-10-17T19:04:56.830Z,15.71
2022-10-17T19:07:25.314Z,15.69
2022-10-17T19:09:53.777Z,15.67
2022-10-17T19:12:22.241Z,15.66
2022-10-17T19:14:52.879Z,15.56
2022-10-17T19:17:21.384Z,15.49
2022-10-17T19:19:51.822Z,15.48
2022-10-17T19:22:21.763Z,15.42
2022-10-17T19:24:50.296Z,15.36
2022-10-17T19:27:20.282Z,15.33
2022-10-17T19:29:48.763Z,15.33
2022-10-17T19:32:20.610Z,15.25
2022-10-17T19:34:51.365Z,15.21
2022-10-17T19:37:21.242Z,15.17
2022-10-17T19:39:49.891Z,15.13
2022-10-17T19:42:18.336Z,15.07
2022-10-17T19:44:46.924Z,15.06
2022-10-17T19:47:15.385Z,15.01
2022-10-17T19:49:49.035Z,14.99
2022-10-17T19:52:18.474Z,14.95
2022-10-17T19:54:48.232Z,14.92
2022-10-17T19:57:16.508Z,14.87
2022-10-17T19:59:44.913Z,14.77
2022-10-17T20:02:14.518Z,14.72
2022-10-17T20:04:54.397Z,14.75
2022-10-17T20:07:28.492Z,14.70
2022-10-17T20:09:58.245Z,14.60
2022-10-17T20:12:26.878Z,14.55
2022-10-17T20:14:55.324Z,14.55
2022-10-17T20:17:24.045Z,14.51
2022-10-17T20:19:52.518Z,14.48
2022-10-17T20:22:20.941Z,14.46
2022-10-17T20:24:49.903Z,14.42
2022-10-17T20:27:22.163Z,14.45
2022-10-17T20:29:52.718Z,14.40
2022-10-17T20:32:21.251Z,14.41
2022-10-17T20:34:49.645Z,14.31
2022-10-17T20:37:18.097Z,14.34
2022-10-17T20:39:46.510Z,14.30
2022-10-17T20:42:15.291Z,14.26
2022-10-17T20:47:33.108Z,14.24
2022-10-17T20:50:08.069Z,14.23
2022-10-17T20:52:37.226Z,14.22
2022-10-17T20:55:06.500Z,14.13
2022-10-17T20:57:34.892Z,14.08
2022-10-17T21:00:05.698Z,14.05
2022-10-17T21:02:34.147Z,14.02
2022-10-17T21:05:02.609Z,14.03
2022-10-17T21:07:31.373Z,14.01
2022-10-17T21:10:12.158Z,13.97
2022-10-17T21:12:53.845Z,13.96
2022-10-17T21:15:24.397Z,13.88
2022-10-17T21:17:52.989Z,13.84
2022-10-17T21:20:21.420Z,13.87
2022-10-17T21:22:49.868Z,13.91
2022-10-17T21:25:18.384Z,13.89
2022-10-17T21:27:46.800Z,13.90
2022-10-17T21:30:15.231Z,13.91
2022-10-17T21:32:51.521Z,13.91
2022-10-17T21:35:20.210Z,13.84
2022-10-17T21:37:48.696Z,13.87
2022-10-17T21:40:17.172Z,13.87
2022-10-17T21:42:45.661Z,13.84
2022-10-17T21:45:24.887Z,13.91
2022-10-17T21:48:12.074Z,13.85
2022-10-17T21:50:42.092Z,13.76
2022-10-17T21:53:10.647Z,13.81
2022-10-17T21:55:39.196Z,13.79
2022-10-17T21:58:07.679Z,13.78
2022-10-17T22:00:36.175Z,13.75
2022-10-17T22:03:07.206Z,13.74
2022-10-17T22:05:35.674Z,13.72
2022-10-17T22:08:04.135Z,13.71
2022-10-17T22:10:32.544Z,13.69
2022-10-17T22:13:01.032Z,13.64
2022-10-17T22:15:30.257Z,13.60
2022-10-17T22:17:58.672Z,13.60
2022-10-17T22:20:28.633Z,13.56
2022-10-17T22:22:57.074Z,13.56
2022-10-17T22:25:25.580Z,13.52
2022-10-17T22:27:54.024Z,13.50
2022-10-17T22:30:22.510Z,13.44
2022-10-17T22:32:50.970Z,13.42
2022-10-17T22:35:19.375Z,13.38
2022-10-17T22:37:49.170Z,13.41
2022-10-17T22:40:17.446Z,13.39
2022-10-17T22:42:45.789Z,13.37
2022-10-17T22:45:14.065Z,13.34
2022-10-17T22:47:42.495Z,13.39
2022-10-17T22:50:11.004Z,13.24
2022-10-17T22:52:39.423Z,13.23
2022-10-17T22:55:10.199Z,13.23
2022-10-17T22:57:38.635Z,13.21
2022-10-17T23:00:09.331Z,13.22
2022-10-17T23:02:38.523Z,13.26
2022-10-17T23:05:08.100Z,13.20
2022-10-17T23:07:37.017Z,13.22
2022-10-17T23:10:06.022Z,13.21
2022-10-17T23:12:35.835Z,13.13
2022-10-17T23:15:04.836Z,13.14
2022-10-17T23:17:33.349Z,13.08
2022-10-17T23:20:01.780Z,13.06
2022-10-17T23:22:30.498Z,13.03
2022-10-17T23:24:59.232Z,13.02
2022-10-17T23:27:27.703Z,12.98
2022-10-17T23:29:57.539Z,12.91
2022-10-17T23:32:25.754Z,12.91
2022-10-17T23:34:54.073Z,12.93
2022-10-17T23:37:22.589Z,12.90
2022-10-17T23:39:50.990Z,12.89
2022-10-17T23:42:19.424Z,12.86
2022-10-17T23:44:47.845Z,12.87
2022-10-17T23:47:17.681Z,12.82
2022-10-17T23:49:46.221Z,12.82
2022-10-17T23:52:14.717Z,12.76
2022-10-17T23:54:43.102Z,12.79
2022-10-17T23:57:11.572Z,12.83
2022-10-17T23:59:40.059Z,12.86
